Terminal Aerodrome Forecast
Issued by NWS Upton, NY

Home | Current Version | Previous Version | Text Only | Print | Product List | Glossary On
Versions: 1 2 3 4 5 6 7 8 9 10 11 12 13 14 15 16 17 18 19 20 21 22 23 24 25 26 27 28 29 30 31
000
FTUS41 KOKX 250232 AAA
TAFLGA
TAF AMD
KLGA 250232Z 2503/2524 18007KT P6SM SCT004 SCT040
      TEMPO 2505/2507 BKN004
     FM250700 17006KT P6SM OVC004
     FM251000 16005KT 3SM BR OVC004
     FM251600 15010KT 6SM BR OVC007
     FM252300 17012KT 6SM -SHRA BR BKN007 PROB30 2523/2524 5SM -TSRA
      BKN007CB=

USA.gov is the U.S. government's official web portal to all federal, state and local government web resources and services.